sensor_id;sensor_type;location;lat;lon;timestamp;pressure;altitude;pressure_sealevel;temperature;humidity
60246;BME280;46107;53.356;-1.524;2023-03-26T00:01:07;97671.14;;;5.51;73.83
60246;BME280;46107;53.356;-1.524;2023-03-26T00:03:36;97666.80;;;7.39;69.49
60246;BME280;46107;53.356;-1.524;2023-03-26T00:06:06;97662.71;;;7.34;69.47
60246;BME280;46107;53.356;-1.524;2023-03-26T00:08:38;97668.36;;;5.75;74.97
60246;BME280;46107;53.356;-1.524;2023-03-26T00:11:08;97663.90;;;7.04;71.83
60246;BME280;46107;53.356;-1.524;2023-03-26T00:13:37;97659.69;;;7.09;72.63
60246;BME280;46107;53.356;-1.524;2023-03-26T00:16:07;97657.31;;;7.28;70.05
60246;BME280;46107;53.356;-1.524;2023-03-26T00:18:36;97660.00;;;7.27;69.25
60246;BME280;46107;53.356;-1.524;2023-03-26T00:21:05;97660.31;;;8.01;67.66
60246;BME280;46107;53.356;-1.524;2023-03-26T00:23:34;97664.95;;;6.02;72.18
60246;BME280;46107;53.356;-1.524;2023-03-26T00:26:04;97657.56;;;6.93;71.13
60246;BME280;46107;53.356;-1.524;2023-03-26T00:28:32;97652.87;;;7.30;70.58
60246;BME280;46107;53.356;-1.524;2023-03-26T00:31:02;97649.52;;;7.07;71.04
60246;BME280;46107;53.356;-1.524;2023-03-26T00:33:32;97651.43;;;6.96;71.18
60246;BME280;46107;53.356;-1.524;2023-03-26T00:36:01;97651.10;;;7.41;70.91
60246;BME280;46107;53.356;-1.524;2023-03-26T00:38:30;97648.40;;;7.96;68.96
60246;BME280;46107;53.356;-1.524;2023-03-26T00:41:00;97650.79;;;6.79;70.85
60246;BME280;46107;53.356;-1.524;2023-03-26T00:43:28;97650.60;;;7.16;71.97
60246;BME280;46107;53.356;-1.524;2023-03-26T00:45:56;97650.63;;;6.68;74.05
60246;BME280;46107;53.356;-1.524;2023-03-26T00:48:24;97648.83;;;7.13;70.60
60246;BME280;46107;53.356;-1.524;2023-03-26T00:50:53;97649.63;;;7.19;70.84
60246;BME280;46107;53.356;-1.524;2023-03-26T00:53:25;97648.97;;;6.53;70.49
60246;BME280;46107;53.356;-1.524;2023-03-26T00:55:53;97648.94;;;6.70;71.74
60246;BME280;46107;53.356;-1.524;2023-03-26T00:58:21;97653.80;;;5.78;75.72
60246;BME280;46107;53.356;-1.524;2023-03-26T01:00:52;97654.14;;;5.52;78.42
60246;BME280;46107;53.356;-1.524;2023-03-26T01:03:19;97650.52;;;6.26;77.05
60246;BME280;46107;53.356;-1.524;2023-03-26T01:05:51;97645.45;;;4.98;80.80
60246;BME280;46107;53.356;-1.524;2023-03-26T01:08:25;97647.12;;;5.54;78.03
60246;BME280;46107;53.356;-1.524;2023-03-26T01:11:03;97642.54;;;6.34;75.54
60246;BME280;46107;53.356;-1.524;2023-03-26T01:13:34;97641.27;;;6.46;74.79
60246;BME280;46107;53.356;-1.524;2023-03-26T01:16:05;97641.53;;;6.06;74.59
60246;BME280;46107;53.356;-1.524;2023-03-26T01:18:38;97639.97;;;6.02;76.41
60246;BME280;46107;53.356;-1.524;2023-03-26T01:21:07;97638.32;;;6.21;76.56
60246;BME280;46107;53.356;-1.524;2023-03-26T01:23:40;97637.69;;;6.35;75.51
60246;BME280;46107;53.356;-1.524;2023-03-26T01:26:19;97637.06;;;6.60;74.99
60246;BME280;46107;53.356;-1.524;2023-03-26T01:28:54;97640.81;;;6.14;75.98
60246;BME280;46107;53.356;-1.524;2023-03-26T01:31:27;97641.31;;;5.81;75.37
60246;BME280;46107;53.356;-1.524;2023-03-26T01:34:02;97642.25;;;5.94;76.38
60246;BME280;46107;53.356;-1.524;2023-03-26T01:36:43;97641.75;;;4.71;79.80
60246;BME280;46107;53.356;-1.524;2023-03-26T01:39:18;97640.29;;;4.40;80.97
60246;BME280;46107;53.356;-1.524;2023-03-26T01:41:52;97638.36;;;6.17;75.13
60246;BME280;46107;53.356;-1.524;2023-03-26T01:44:29;97637.85;;;6.35;73.38
60246;BME280;46107;53.356;-1.524;2023-03-26T01:46:59;97635.32;;;5.95;72.84
60246;BME280;46107;53.356;-1.524;2023-03-26T01:49:27;97633.03;;;6.96;71.14
60246;BME280;46107;53.356;-1.524;2023-03-26T01:51:57;97633.17;;;6.22;72.03
60246;BME280;46107;53.356;-1.524;2023-03-26T01:54:27;97638.87;;;5.68;73.66
60246;BME280;46107;53.356;-1.524;2023-03-26T01:57:03;97635.95;;;4.82;78.40
60246;BME280;46107;53.356;-1.524;2023-03-26T01:59:52;97637.11;;;6.34;73.90
60246;BME280;46107;53.356;-1.524;2023-03-26T02:02:28;97633.94;;;5.98;74.39
60246;BME280;46107;53.356;-1.524;2023-03-26T02:05:10;97632.81;;;5.33;76.94
60246;BME280;46107;53.356;-1.524;2023-03-26T02:07:45;97630.78;;;5.71;78.42
60246;BME280;46107;53.356;-1.524;2023-03-26T02:10:19;97629.35;;;4.74;78.62
60246;BME280;46107;53.356;-1.524;2023-03-26T02:12:49;97626.47;;;5.20;80.61
60246;BME280;46107;53.356;-1.524;2023-03-26T02:15:17;97623.80;;;5.47;76.56
60246;BME280;46107;53.356;-1.524;2023-03-26T02:17:45;97618.39;;;5.89;75.80
60246;BME280;46107;53.356;-1.524;2023-03-26T02:20:14;97623.08;;;5.88;76.10
60246;BME280;46107;53.356;-1.524;2023-03-26T02:22:43;97621.54;;;4.86;78.62
60246;BME280;46107;53.356;-1.524;2023-03-26T02:25:13;97620.38;;;5.10;76.83
60246;BME280;46107;53.356;-1.524;2023-03-26T02:27:42;97621.89;;;5.55;75.85
60246;BME280;46107;53.356;-1.524;2023-03-26T02:30:14;97625.83;;;4.38;81.45
60246;BME280;46107;53.356;-1.524;2023-03-26T02:32:42;97617.60;;;5.11;79.49
60246;BME280;46107;53.356;-1.524;2023-03-26T02:35:11;97617.09;;;5.51;77.51
60246;BME280;46107;53.356;-1.524;2023-03-26T02:37:40;97617.36;;;5.54;77.14
60246;BME280;46107;53.356;-1.524;2023-03-26T02:40:09;97615.95;;;4.38;79.16
60246;BME280;46107;53.356;-1.524;2023-03-26T02:42:39;97616.97;;;4.47;79.89
60246;BME280;46107;53.356;-1.524;2023-03-26T02:45:09;97621.85;;;4.07;82.62
60246;BME280;46107;53.356;-1.524;2023-03-26T02:47:37;97614.79;;;4.84;80.06
60246;BME280;46107;53.356;-1.524;2023-03-26T02:50:07;97620.51;;;3.62;83.35
60246;BME280;46107;53.356;-1.524;2023-03-26T02:52:37;97617.02;;;4.42;81.26
60246;BME280;46107;53.356;-1.524;2023-03-26T02:55:06;97613.42;;;4.53;80.67
60246;BME280;46107;53.356;-1.524;2023-03-26T02:57:34;97620.76;;;4.11;82.08
60246;BME280;46107;53.356;-1.524;2023-03-26T03:00:05;97616.09;;;4.75;79.55
60246;BME280;46107;53.356;-1.524;2023-03-26T03:02:33;97617.73;;;4.53;80.75
60246;BME280;46107;53.356;-1.524;2023-03-26T03:05:02;97618.49;;;4.21;81.69
60246;BME280;46107;53.356;-1.524;2023-03-26T03:07:31;97613.22;;;4.96;77.96
60246;BME280;46107;53.356;-1.524;2023-03-26T03:09:58;97613.82;;;5.11;76.73
60246;BME280;46107;53.356;-1.524;2023-03-26T03:12:27;97614.90;;;5.30;77.54
60246;BME280;46107;53.356;-1.524;2023-03-26T03:14:56;97620.58;;;3.84;80.83
60246;BME280;46107;53.356;-1.524;2023-03-26T03:17:24;97614.19;;;4.40;78.72
60246;BME280;46107;53.356;-1.524;2023-03-26T03:19:53;97618.40;;;4.14;82.01
60246;BME280;46107;53.356;-1.524;2023-03-26T03:22:22;97618.64;;;4.32;81.01
60246;BME280;46107;53.356;-1.524;2023-03-26T03:24:52;97620.00;;;4.05;81.70
60246;BME280;46107;53.356;-1.524;2023-03-26T03:27:20;97610.80;;;5.57;75.85
60246;BME280;46107;53.356;-1.524;2023-03-26T03:29:50;97614.67;;;5.33;76.67
60246;BME280;46107;53.356;-1.524;2023-03-26T03:32:18;97616.36;;;5.65;76.54
60246;BME280;46107;53.356;-1.524;2023-03-26T03:34:46;97621.05;;;3.93;79.47
60246;BME280;46107;53.356;-1.524;2023-03-26T03:37:16;97623.70;;;4.27;80.72
60246;BME280;46107;53.356;-1.524;2023-03-26T03:39:45;97623.14;;;4.62;80.19
60246;BME280;46107;53.356;-1.524;2023-03-26T03:42:12;97620.19;;;3.33;84.10
60246;BME280;46107;53.356;-1.524;2023-03-26T03:44:41;97617.51;;;4.83;78.96
60246;BME280;46107;53.356;-1.524;2023-03-26T03:47:09;97618.09;;;4.60;78.46
60246;BME280;46107;53.356;-1.524;2023-03-26T03:49:36;97621.62;;;4.46;78.99
60246;BME280;46107;53.356;-1.524;2023-03-26T03:52:04;97619.40;;;4.90;77.54
60246;BME280;46107;53.356;-1.524;2023-03-26T03:54:34;97619.05;;;5.16;76.56
60246;BME280;46107;53.356;-1.524;2023-03-26T03:57:03;97621.98;;;4.08;79.93
60246;BME280;46107;53.356;-1.524;2023-03-26T03:59:32;97625.53;;;4.32;80.36
60246;BME280;46107;53.356;-1.524;2023-03-26T04:02:00;97625.47;;;4.05;79.76
60246;BME280;46107;53.356;-1.524;2023-03-26T04:04:30;97628.01;;;4.23;80.07
60246;BME280;46107;53.356;-1.524;2023-03-26T04:06:57;97625.67;;;4.40;79.96
60246;BME280;46107;53.356;-1.524;2023-03-26T04:09:25;97629.86;;;4.45;79.10
60246;BME280;46107;53.356;-1.524;2023-03-26T04:11:55;97621.39;;;4.95;77.39
60246;BME280;46107;53.356;-1.524;2023-03-26T04:14:23;97628.01;;;4.19;78.31
60246;BME280;46107;53.356;-1.524;2023-03-26T04:16:53;97626.51;;;3.79;80.42
60246;BME280;46107;53.356;-1.524;2023-03-26T04:19:21;97634.80;;;3.57;84.14
60246;BME280;46107;53.356;-1.524;2023-03-26T04:21:50;97633.56;;;3.50;82.73
60246;BME280;46107;53.356;-1.524;2023-03-26T04:24:19;97634.95;;;3.36;84.26
60246;BME280;46107;53.356;-1.524;2023-03-26T04:26:48;97640.17;;;3.83;82.41
60246;BME280;46107;53.356;-1.524;2023-03-26T04:29:18;97638.90;;;3.89;81.30
60246;BME280;46107;53.356;-1.524;2023-03-26T04:31:48;97638.29;;;3.58;81.52
60246;BME280;46107;53.356;-1.524;2023-03-26T04:34:21;97639.12;;;2.92;88.17
60246;BME280;46107;53.356;-1.524;2023-03-26T04:36:52;97639.74;;;3.76;83.74
60246;BME280;46107;53.356;-1.524;2023-03-26T04:39:20;97637.83;;;3.41;84.33
60246;BME280;46107;53.356;-1.524;2023-03-26T04:41:50;97639.99;;;2.85;85.55
60246;BME280;46107;53.356;-1.524;2023-03-26T04:44:19;97637.30;;;4.23;80.44
60246;BME280;46107;53.356;-1.524;2023-03-26T04:46:48;97638.09;;;2.64;85.62
60246;BME280;46107;53.356;-1.524;2023-03-26T04:49:16;97637.80;;;3.20;86.23
60246;BME280;46107;53.356;-1.524;2023-03-26T04:51:46;97641.43;;;3.06;83.18
60246;BME280;46107;53.356;-1.524;2023-03-26T04:54:16;97641.83;;;3.70;81.23
60246;BME280;46107;53.356;-1.524;2023-03-26T04:56:51;97645.07;;;3.04;84.00
60246;BME280;46107;53.356;-1.524;2023-03-26T04:59:25;97641.20;;;2.58;85.58
60246;BME280;46107;53.356;-1.524;2023-03-26T05:01:54;97640.34;;;3.20;83.64
60246;BME280;46107;53.356;-1.524;2023-03-26T05:04:23;97647.74;;;3.69;81.64
60246;BME280;46107;53.356;-1.524;2023-03-26T05:06:53;97651.25;;;2.46;83.68
60246;BME280;46107;53.356;-1.524;2023-03-26T05:09:22;97657.82;;;2.33;84.74
60246;BME280;46107;53.356;-1.524;2023-03-26T05:11:52;97657.45;;;2.53;82.49
60246;BME280;46107;53.356;-1.524;2023-03-26T05:14:21;97662.70;;;2.25;87.24
60246;BME280;46107;53.356;-1.524;2023-03-26T05:16:51;97666.41;;;1.82;87.69
60246;BME280;46107;53.356;-1.524;2023-03-26T05:19:20;97664.67;;;3.17;80.74
60246;BME280;46107;53.356;-1.524;2023-03-26T05:21:49;97674.15;;;2.72;82.96
60246;BME280;46107;53.356;-1.524;2023-03-26T05:24:19;97676.16;;;2.07;85.88
60246;BME280;46107;53.356;-1.524;2023-03-26T05:26:48;97679.49;;;1.90;85.02
60246;BME280;46107;53.356;-1.524;2023-03-26T05:29:18;97684.51;;;2.78;81.88
60246;BME280;46107;53.356;-1.524;2023-03-26T05:31:47;97683.82;;;2.29;82.62
60246;BME280;46107;53.356;-1.524;2023-03-26T05:34:18;97686.51;;;2.89;80.39
60246;BME280;46107;53.356;-1.524;2023-03-26T05:36:47;97694.88;;;3.39;80.73
60246;BME280;46107;53.356;-1.524;2023-03-26T05:39:15;97702.31;;;2.77;82.27
60246;BME280;46107;53.356;-1.524;2023-03-26T05:41:44;97693.93;;;3.44;80.83
60246;BME280;46107;53.356;-1.524;2023-03-26T05:44:13;97700.91;;;3.76;79.56
60246;BME280;46107;53.356;-1.524;2023-03-26T05:46:41;97698.47;;;3.33;80.25
60246;BME280;46107;53.356;-1.524;2023-03-26T05:49:10;97706.03;;;2.54;83.23
60246;BME280;46107;53.356;-1.524;2023-03-26T05:51:40;97708.45;;;3.46;79.90
60246;BME280;46107;53.356;-1.524;2023-03-26T05:54:10;97714.12;;;2.79;81.66
60246;BME280;46107;53.356;-1.524;2023-03-26T05:56:38;97712.36;;;2.96;80.48
60246;BME280;46107;53.356;-1.524;2023-03-26T05:59:06;97715.23;;;2.39;83.07
60246;BME280;46107;53.356;-1.524;2023-03-26T06:01:33;97724.98;;;2.78;82.23
60246;BME280;46107;53.356;-1.524;2023-03-26T06:04:02;97725.97;;;3.18;78.46
60246;BME280;46107;53.356;-1.524;2023-03-26T06:06:31;97727.63;;;2.66;81.69
60246;BME280;46107;53.356;-1.524;2023-03-26T06:09:00;97728.25;;;2.57;81.82
60246;BME280;46107;53.356;-1.524;2023-03-26T06:11:31;97731.98;;;2.98;79.89
60246;BME280;46107;53.356;-1.524;2023-03-26T06:14:00;97737.11;;;2.99;78.34
60246;BME280;46107;53.356;-1.524;2023-03-26T06:16:33;97741.91;;;3.11;80.03
60246;BME280;46107;53.356;-1.524;2023-03-26T06:19:01;97739.28;;;1.99;81.47
60246;BME280;46107;53.356;-1.524;2023-03-26T06:21:31;97741.65;;;2.34;80.29
60246;BME280;46107;53.356;-1.524;2023-03-26T06:24:00;97748.40;;;3.11;78.89
60246;BME280;46107;53.356;-1.524;2023-03-26T06:26:28;97754.88;;;3.01;79.08
60246;BME280;46107;53.356;-1.524;2023-03-26T06:28:57;97758.16;;;2.59;78.55
60246;BME280;46107;53.356;-1.524;2023-03-26T06:31:26;97761.77;;;2.23;77.15
60246;BME280;46107;53.356;-1.524;2023-03-26T06:33:54;97766.67;;;3.47;74.53
60246;BME280;46107;53.356;-1.524;2023-03-26T06:36:22;97775.76;;;3.15;76.49
60246;BME280;46107;53.356;-1.524;2023-03-26T06:38:52;97781.99;;;3.24;76.16
60246;BME280;46107;53.356;-1.524;2023-03-26T06:41:20;97781.22;;;3.77;72.54
60246;BME280;46107;53.356;-1.524;2023-03-26T06:43:48;97784.70;;;3.44;73.49
60246;BME280;46107;53.356;-1.524;2023-03-26T06:46:16;97790.77;;;3.12;74.17
60246;BME280;46107;53.356;-1.524;2023-03-26T06:48:46;97788.26;;;2.72;75.36
60246;BME280;46107;53.356;-1.524;2023-03-26T06:51:14;97792.88;;;3.24;74.16
60246;BME280;46107;53.356;-1.524;2023-03-26T06:53:43;97798.63;;;2.65;72.94
60246;BME280;46107;53.356;-1.524;2023-03-26T06:56:13;97799.03;;;3.34;73.03
60246;BME280;46107;53.356;-1.524;2023-03-26T06:58:41;97803.81;;;2.89;76.97
60246;BME280;46107;53.356;-1.524;2023-03-26T07:01:10;97805.02;;;3.17;73.92
60246;BME280;46107;53.356;-1.524;2023-03-26T07:03:40;97809.26;;;3.26;73.11
60246;BME280;46107;53.356;-1.524;2023-03-26T07:06:09;97812.55;;;2.52;75.25
60246;BME280;46107;53.356;-1.524;2023-03-26T07:08:37;97815.55;;;2.73;78.12
60246;BME280;46107;53.356;-1.524;2023-03-26T07:11:06;97817.40;;;2.51;77.97
60246;BME280;46107;53.356;-1.524;2023-03-26T07:13:35;97819.51;;;3.07;76.37
60246;BME280;46107;53.356;-1.524;2023-03-26T07:16:04;97825.58;;;3.13;74.33
60246;BME280;46107;53.356;-1.524;2023-03-26T07:18:33;97831.45;;;2.41;74.69
60246;BME280;46107;53.356;-1.524;2023-03-26T07:21:08;97832.72;;;2.82;76.72
60246;BME280;46107;53.356;-1.524;2023-03-26T07:23:39;97838.29;;;1.80;78.78
60246;BME280;46107;53.356;-1.524;2023-03-26T07:26:24;97841.67;;;2.51;78.41
60246;BME280;46107;53.356;-1.524;2023-03-26T07:28:58;97847.99;;;2.98;77.03
60246;BME280;46107;53.356;-1.524;2023-03-26T07:31:35;97851.84;;;2.72;78.59
60246;BME280;46107;53.356;-1.524;2023-03-26T07:34:15;97853.94;;;2.20;78.95
60246;BME280;46107;53.356;-1.524;2023-03-26T07:36:54;97857.38;;;2.46;77.77
60246;BME280;46107;53.356;-1.524;2023-03-26T07:39:38;97862.72;;;2.02;81.74
60246;BME280;46107;53.356;-1.524;2023-03-26T07:42:21;97863.36;;;2.18;81.53
60246;BME280;46107;53.356;-1.524;2023-03-26T07:44:56;97872.70;;;2.22;79.17
60246;BME280;46107;53.356;-1.524;2023-03-26T07:47:30;97876.05;;;2.12;79.13
60246;BME280;46107;53.356;-1.524;2023-03-26T07:50:02;97881.21;;;2.07;79.43
60246;BME280;46107;53.356;-1.524;2023-03-26T07:52:32;97889.05;;;2.62;77.22
60246;BME280;46107;53.356;-1.524;2023-03-26T07:55:01;97893.39;;;2.86;74.42
60246;BME280;46107;53.356;-1.524;2023-03-26T07:57:38;97901.45;;;2.90;74.06
60246;BME280;46107;53.356;-1.524;2023-03-26T08:00:17;97903.60;;;2.95;75.42
60246;BME280;46107;53.356;-1.524;2023-03-26T08:03:08;97908.93;;;2.16;74.87
60246;BME280;46107;53.356;-1.524;2023-03-26T08:05:45;97912.02;;;2.87;75.50
60246;BME280;46107;53.356;-1.524;2023-03-26T08:08:20;97911.32;;;2.72;76.94
60246;BME280;46107;53.356;-1.524;2023-03-26T08:11:07;97923.88;;;2.43;77.24
60246;BME280;46107;53.356;-1.524;2023-03-26T08:13:51;97922.18;;;1.70;78.60
60246;BME280;46107;53.356;-1.524;2023-03-26T08:16:26;97925.43;;;1.88;80.08
60246;BME280;46107;53.356;-1.524;2023-03-26T08:19:02;97927.96;;;2.17;79.80
60246;BME280;46107;53.356;-1.524;2023-03-26T08:21:37;97927.96;;;2.89;76.29
60246;BME280;46107;53.356;-1.524;2023-03-26T08:24:16;97935.42;;;2.66;76.88
60246;BME280;46107;53.356;-1.524;2023-03-26T08:26:52;97940.47;;;3.03;73.78
60246;BME280;46107;53.356;-1.524;2023-03-26T08:29:31;97953.19;;;2.27;77.70
60246;BME280;46107;53.356;-1.524;2023-03-26T08:32:04;97954.51;;;3.25;75.82
60246;BME280;46107;53.356;-1.524;2023-03-26T08:34:37;97953.94;;;3.60;74.30
60246;BME280;46107;53.356;-1.524;2023-03-26T08:37:07;97960.81;;;3.76;71.69
60246;BME280;46107;53.356;-1.524;2023-03-26T08:39:36;97963.85;;;4.05;70.01
60246;BME280;46107;53.356;-1.524;2023-03-26T08:42:27;97970.61;;;2.94;70.99
60246;BME280;46107;53.356;-1.524;2023-03-26T08:47:50;97980.44;;;2.87;71.86
60246;BME280;46107;53.356;-1.524;2023-03-26T08:50:40;97985.78;;;3.66;69.37
60246;BME280;46107;53.356;-1.524;2023-03-26T08:53:26;97990.24;;;4.20;67.82
60246;BME280;46107;53.356;-1.524;2023-03-26T08:56:01;97997.66;;;4.12;66.40
60246;BME280;46107;53.356;-1.524;2023-03-26T09:01:07;98001.24;;;2.88;73.54
60246;BME280;46107;53.356;-1.524;2023-03-26T09:03:54;98007.11;;;2.63;70.85
60246;BME280;46107;53.356;-1.524;2023-03-26T09:06:49;98007.73;;;3.22;70.22
60246;BME280;46107;53.356;-1.524;2023-03-26T09:10:07;98012.08;;;3.68;66.61
60246;BME280;46107;53.356;-1.524;2023-03-26T09:13:25;98024.11;;;3.34;68.43
60246;BME280;46107;53.356;-1.524;2023-03-26T09:16:16;98021.65;;;3.78;68.42
60246;BME280;46107;53.356;-1.524;2023-03-26T09:19:29;98031.57;;;2.97;70.67
60246;BME280;46107;53.356;-1.524;2023-03-26T09:22:32;98031.47;;;3.55;65.10
60246;BME280;46107;53.356;-1.524;2023-03-26T09:25:39;98033.47;;;4.12;60.14
60246;BME280;46107;53.356;-1.524;2023-03-26T09:28:45;98042.56;;;3.96;60.74
60246;BME280;46107;53.356;-1.524;2023-03-26T09:31:39;98039.36;;;3.56;62.62
60246;BME280;46107;53.356;-1.524;2023-03-26T09:34:26;98047.27;;;4.52;61.31
60246;BME280;46107;53.356;-1.524;2023-03-26T09:37:16;98052.65;;;4.32;63.50
60246;BME280;46107;53.356;-1.524;2023-03-26T09:39:58;98058.03;;;4.76;61.58
60246;BME280;46107;53.356;-1.524;2023-03-26T09:42:39;98068.04;;;4.43;59.96
60246;BME280;46107;53.356;-1.524;2023-03-26T09:46:11;98073.14;;;4.23;58.18
60246;BME280;46107;53.356;-1.524;2023-03-26T09:48:57;98078.40;;;4.42;60.68
60246;BME280;46107;53.356;-1.524;2023-03-26T09:51:53;98082.24;;;5.13;56.95
60246;BME280;46107;53.356;-1.524;2023-03-26T09:54:44;98087.72;;;3.91;61.33
60246;BME280;46107;53.356;-1.524;2023-03-26T09:57:27;98094.79;;;4.60;58.93
60246;BME280;46107;53.356;-1.524;2023-03-26T10:00:16;98094.32;;;5.03;57.11
60246;BME280;46107;53.356;-1.524;2023-03-26T10:02:59;98097.11;;;5.44;55.76
60246;BME280;46107;53.356;-1.524;2023-03-26T10:05:42;98098.46;;;5.81;56.07
60246;BME280;46107;53.356;-1.524;2023-03-26T10:08:29;98103.85;;;4.72;57.97
60246;BME280;46107;53.356;-1.524;2023-03-26T10:11:05;98109.75;;;5.05;57.84
60246;BME280;46107;53.356;-1.524;2023-03-26T10:13:49;98113.79;;;4.78;57.13
60246;BME280;46107;53.356;-1.524;2023-03-26T10:16:27;98116.36;;;4.64;55.67
60246;BME280;46107;53.356;-1.524;2023-03-26T10:19:15;98122.23;;;4.91;57.78
60246;BME280;46107;53.356;-1.524;2023-03-26T10:21:53;98122.70;;;4.99;54.04
60246;BME280;46107;53.356;-1.524;2023-03-26T10:24:42;98127.58;;;4.73;53.54
60246;BME280;46107;53.356;-1.524;2023-03-26T10:27:28;98135.04;;;4.57;53.54
60246;BME280;46107;53.356;-1.524;2023-03-26T10:30:26;98144.72;;;4.22;55.38
60246;BME280;46107;53.356;-1.524;2023-03-26T10:33:09;98155.55;;;4.79;53.78
60246;BME280;46107;53.356;-1.524;2023-03-26T10:35:51;98159.21;;;4.91;53.35
60246;BME280;46107;53.356;-1.524;2023-03-26T10:38:35;98164.37;;;4.59;53.91
60246;BME280;46107;53.356;-1.524;2023-03-26T10:41:15;98164.03;;;5.36;51.28
60246;BME280;46107;53.356;-1.524;2023-03-26T10:44:02;98169.70;;;5.38;51.74
60246;BME280;46107;53.356;-1.524;2023-03-26T10:46:57;98178.72;;;6.20;49.49
60246;BME280;46107;53.356;-1.524;2023-03-26T10:50:22;98181.01;;;5.39;49.05
60246;BME280;46107;53.356;-1.524;2023-03-26T10:52:59;98184.36;;;5.47;49.61
60246;BME280;46107;53.356;-1.524;2023-03-26T10:55:34;98190.73;;;6.38;47.54
60246;BME280;46107;53.356;-1.524;2023-03-26T10:58:12;98192.65;;;4.70;51.71
60246;BME280;46107;53.356;-1.524;2023-03-26T11:00:47;98193.03;;;4.61;51.67
60246;BME280;46107;53.356;-1.524;2023-03-26T11:03:35;98203.19;;;5.73;51.08
60246;BME280;46107;53.356;-1.524;2023-03-26T11:06:15;98207.32;;;5.64;52.06
60246;BME280;46107;53.356;-1.524;2023-03-26T11:08:51;98212.81;;;5.02;53.11
60246;BME280;46107;53.356;-1.524;2023-03-26T11:11:26;98220.18;;;4.11;56.40
60246;BME280;46107;53.356;-1.524;2023-03-26T11:14:02;98227.34;;;5.19;54.45
60246;BME280;46107;53.356;-1.524;2023-03-26T11:16:36;98230.29;;;5.13;53.07
60246;BME280;46107;53.356;-1.524;2023-03-26T11:19:17;98237.43;;;4.92;53.65
60246;BME280;46107;53.356;-1.524;2023-03-26T11:21:54;98240.34;;;5.53;53.64
60246;BME280;46107;53.356;-1.524;2023-03-26T11:24:42;98241.04;;;6.01;54.13
60246;BME280;46107;53.356;-1.524;2023-03-26T11:27:22;98247.29;;;5.43;51.48
60246;BME280;46107;53.356;-1.524;2023-03-26T11:30:02;98247.37;;;5.14;50.83
60246;BME280;46107;53.356;-1.524;2023-03-26T11:32:41;98253.52;;;5.96;52.36
60246;BME280;46107;53.356;-1.524;2023-03-26T11:35:18;98255.52;;;5.56;52.60
60246;BME280;46107;53.356;-1.524;2023-03-26T11:37:53;98260.47;;;4.81;55.15
60246;BME280;46107;53.356;-1.524;2023-03-26T11:40:28;98263.47;;;4.53;55.76
60246;BME280;46107;53.356;-1.524;2023-03-26T11:43:03;98273.02;;;4.84;53.99
60246;BME280;46107;53.356;-1.524;2023-03-26T11:45:37;98281.25;;;4.79;53.27
60246;BME280;46107;53.356;-1.524;2023-03-26T11:48:13;98287.15;;;5.34;54.18
60246;BME280;46107;53.356;-1.524;2023-03-26T11:50:45;98289.77;;;5.04;55.67
60246;BME280;46107;53.356;-1.524;2023-03-26T11:53:17;98289.32;;;5.53;54.63
60246;BME280;46107;53.356;-1.524;2023-03-26T11:55:53;98292.24;;;6.22;53.18
60246;BME280;46107;53.356;-1.524;2023-03-26T11:58:28;98296.90;;;5.09;54.78
60246;BME280;46107;53.356;-1.524;2023-03-26T12:01:03;98298.28;;;5.24;54.05
60246;BME280;46107;53.356;-1.524;2023-03-26T12:03:34;98299.67;;;5.51;55.71
60246;BME280;46107;53.356;-1.524;2023-03-26T12:06:03;98308.93;;;5.72;55.36
60246;BME280;46107;53.356;-1.524;2023-03-26T12:08:38;98318.57;;;4.93;55.84
60246;BME280;46107;53.356;-1.524;2023-03-26T12:11:09;98322.29;;;5.58;52.65
60246;BME280;46107;53.356;-1.524;2023-03-26T12:13:42;98329.72;;;5.81;54.74
60246;BME280;46107;53.356;-1.524;2023-03-26T12:16:14;98332.78;;;6.37;52.56
60246;BME280;46107;53.356;-1.524;2023-03-26T12:18:43;98338.55;;;5.53;55.06
60246;BME280;46107;53.356;-1.524;2023-03-26T12:21:15;98342.47;;;5.76;54.47
60246;BME280;46107;53.356;-1.524;2023-03-26T12:23:54;98345.34;;;5.42;53.39
60246;BME280;46107;53.356;-1.524;2023-03-26T12:26:33;98354.10;;;6.37;52.72
60246;BME280;46107;53.356;-1.524;2023-03-26T12:29:12;98358.61;;;6.83;52.74
60246;BME280;46107;53.356;-1.524;2023-03-26T12:31:55;98366.78;;;6.98;52.55
60246;BME280;46107;53.356;-1.524;2023-03-26T12:34:30;98374.75;;;6.87;48.60
60246;BME280;46107;53.356;-1.524;2023-03-26T12:37:01;98377.11;;;6.58;47.61
60246;BME280;46107;53.356;-1.524;2023-03-26T12:39:35;98381.77;;;6.49;49.77
60246;BME280;46107;53.356;-1.524;2023-03-26T12:42:08;98388.67;;;6.39;50.04
60246;BME280;46107;53.356;-1.524;2023-03-26T12:44:51;98396.37;;;6.61;45.71
60246;BME280;46107;53.356;-1.524;2023-03-26T12:47:24;98407.20;;;6.60;46.07
60246;BME280;46107;53.356;-1.524;2023-03-26T12:49:55;98405.55;;;6.05;47.33
60246;BME280;46107;53.356;-1.524;2023-03-26T12:52:34;98410.62;;;5.59;49.27
60246;BME280;46107;53.356;-1.524;2023-03-26T12:55:17;98420.57;;;5.44;49.27
60246;BME280;46107;53.356;-1.524;2023-03-26T12:57:56;98423.14;;;6.24;49.53
60246;BME280;46107;53.356;-1.524;2023-03-26T13:00:45;98438.24;;;5.03;51.29
60246;BME280;46107;53.356;-1.524;2023-03-26T13:03:28;98434.98;;;5.92;51.06
60246;BME280;46107;53.356;-1.524;2023-03-26T13:06:29;98443.10;;;5.10;51.27
60246;BME280;46107;53.356;-1.524;2023-03-26T13:09:39;98447.79;;;5.18;50.26
60246;BME280;46107;53.356;-1.524;2023-03-26T13:12:23;98449.64;;;4.93;51.24
60246;BME280;46107;53.356;-1.524;2023-03-26T13:15:21;98451.76;;;5.45;52.45
60246;BME280;46107;53.356;-1.524;2023-03-26T13:18:02;98457.21;;;5.27;52.31
60246;BME280;46107;53.356;-1.524;2023-03-26T13:20:47;98454.81;;;5.75;53.10
60246;BME280;46107;53.356;-1.524;2023-03-26T13:23:25;98457.43;;;5.98;52.12
60246;BME280;46107;53.356;-1.524;2023-03-26T13:26:04;98464.17;;;5.95;51.63
60246;BME280;46107;53.356;-1.524;2023-03-26T13:28:41;98468.08;;;5.88;50.25
60246;BME280;46107;53.356;-1.524;2023-03-26T13:31:19;98476.07;;;6.23;49.64
60246;BME280;46107;53.356;-1.524;2023-03-26T13:33:57;98486.20;;;5.18;53.35
60246;BME280;46107;53.356;-1.524;2023-03-26T13:36:35;98488.25;;;5.37;53.72
60246;BME280;46107;53.356;-1.524;2023-03-26T13:39:19;98490.54;;;5.43;51.10
60246;BME280;46107;53.356;-1.524;2023-03-26T13:42:04;98489.38;;;5.11;55.19
60246;BME280;46107;53.356;-1.524;2023-03-26T13:44:45;98489.56;;;5.83;52.47
60246;BME280;46107;53.356;-1.524;2023-03-26T13:47:20;98494.44;;;5.85;49.60